INGA4: Red River, Index, AR

                                SHEF ID:       INGA4     Red River at Index, AR
STATION TYPE: Stream Gauge
Regulating: Stage = 19.80, Flow = 104273

PRECIP STAGE RIV-FLOW WTR-TEMP BAT-LOAD
in ft cfs F volt
Ccp-Rev Ccp-Rev Ccp-Rev Ccp-Rev Ccp-Rev
(America/Chicago)
04/29 00:00 0.00 2.04 6653 76.98 12.68
04/29 01:00 0.00 2.08 6790 76.82 12.65
04/29 02:00 0.00 2.12 6928 76.60 12.64
04/29 03:00 0.00 2.16 7066 76.41 12.63
04/29 04:00 0.00 2.20 7205 76.28 12.61
04/29 05:00 0.00 2.24 7345 76.17 12.60
04/29 06:00 0.00 2.28 7486 76.03 12.58
04/29 07:00 0.00 2.34 7698 75.88 12.57
04/29 08:00 0.00 2.38 7841 75.70 12.56
04/29 09:00 0.00 2.43 8020 75.56 12.76
04/29 10:00 0.00 2.47 8164 75.47 13.03
04/29 11:00 0.00 2.52 8345 75.36 13.35
04/29 12:00 0.28 2.57 8527 75.24 12.99
04/29 13:00 0.00 2.62 8710 75.27 13.59
04/29 14:00 0.00 2.66 8857 75.25 13.35
04/29 15:00 0.00 2.70 9006 75.47 13.50
04/29 16:00 0.00 2.74 9154 75.42 13.36
04/29 17:00 0.77 2.81 9416 75.24 13.32
04/29 18:00 0.23 2.84 9529 75.16 13.05
04/29 19:00 0.01 2.86 9604 75.20 13.15
04/29 20:00 0.00 2.88 9680 74.97 13.28
04/29 21:00 0.00 2.92 9832 74.70 12.90
04/29 22:00 0.00 2.94 9908 74.53 12.73
04/29 23:00 0.00 2.97 10022 74.39 12.70
Data processed at Thu 30Apr2026 04:11 GMT

NOTICE: If you are parsing this page

Please convert to using our Data API. Starting early 2026 we will be migrating to: https://water.usace.army.mil with modern pages rendered in JavaScript. When this migration completes you will no longer be able to scrape this page! CWMSDataAPI (CDA)

Timeseries IDs (TSIDs)

TSIDs used from left to right in the data table
INDX.Precip-Inc.Total.1Hour.1Hour.Ccp-Rev
INDX.Stage.Inst.1Hour.0.Ccp-Rev
INDX.Flow.Inst.1Hour.0.Ccp-Rev
INDX.Temp-Water.Inst.1Hour.0.Ccp-Rev
INDX.Volt-Battery Load.Inst.1Hour.0.Ccp-Rev

                            

All information presented herein is the property of the government of the United States of America and may be revised or deleted at any time without prior notice. Dissemination of this information without the expressed written consent of the Public Affairs Office, Tulsa District U.S. Army Corps of Engineers is strictly prohibited. These data are gathered electronically and, as presented, have NOT undergone any form of quality control. These data are NOT guaranteed to be valid or correct.